sensor_id;sensor_type;location;lat;lon;timestamp;temperature;humidity
11107;DHT22;5607;48.302;14.294;2023-03-14T00:02:02;9.80;99.90
11107;DHT22;5607;48.302;14.294;2023-03-14T00:04:48;9.80;99.90
11107;DHT22;5607;48.302;14.294;2023-03-14T00:07:35;9.80;99.90
11107;DHT22;5607;48.302;14.294;2023-03-14T00:10:23;9.80;99.90
11107;DHT22;5607;48.302;14.294;2023-03-14T00:13:10;9.80;99.90
11107;DHT22;5607;48.302;14.294;2023-03-14T00:16:01;9.80;99.90
11107;DHT22;5607;48.302;14.294;2023-03-14T00:18:55;9.80;99.90
11107;DHT22;5607;48.302;14.294;2023-03-14T00:21:42;9.60;99.90
11107;DHT22;5607;48.302;14.294;2023-03-14T00:24:28;9.50;99.90
11107;DHT22;5607;48.302;14.294;2023-03-14T00:27:15;9.40;99.90
11107;DHT22;5607;48.302;14.294;2023-03-14T00:30:03;9.30;99.90
11107;DHT22;5607;48.302;14.294;2023-03-14T00:32:51;9.30;99.90
11107;DHT22;5607;48.302;14.294;2023-03-14T00:35:37;9.40;99.90
11107;DHT22;5607;48.302;14.294;2023-03-14T00:38:24;9.50;99.90
11107;DHT22;5607;48.302;14.294;2023-03-14T00:41:12;9.50;99.90
11107;DHT22;5607;48.302;14.294;2023-03-14T00:44:01;9.50;99.90
11107;DHT22;5607;48.302;14.294;2023-03-14T00:46:47;9.40;99.90
11107;DHT22;5607;48.302;14.294;2023-03-14T00:49:34;9.30;99.90
11107;DHT22;5607;48.302;14.294;2023-03-14T00:52:20;9.40;99.90
11107;DHT22;5607;48.302;14.294;2023-03-14T00:55:09;9.40;99.90
11107;DHT22;5607;48.302;14.294;2023-03-14T00:57:55;9.40;99.90
11107;DHT22;5607;48.302;14.294;2023-03-14T01:00:42;9.40;99.90
11107;DHT22;5607;48.302;14.294;2023-03-14T01:03:29;9.30;99.90
11107;DHT22;5607;48.302;14.294;2023-03-14T01:06:17;9.30;99.90
11107;DHT22;5607;48.302;14.294;2023-03-14T01:09:06;9.20;99.90
11107;DHT22;5607;48.302;14.294;2023-03-14T01:11:52;9.20;99.90
11107;DHT22;5607;48.302;14.294;2023-03-14T01:14:39;9.20;99.90
11107;DHT22;5607;48.302;14.294;2023-03-14T01:17:25;9.30;99.90
11107;DHT22;5607;48.302;14.294;2023-03-14T01:20:12;9.20;99.90
11107;DHT22;5607;48.302;14.294;2023-03-14T01:23:00;9.20;99.90
11107;DHT22;5607;48.302;14.294;2023-03-14T01:25:47;9.30;99.90
11107;DHT22;5607;48.302;14.294;2023-03-14T01:28:33;9.30;99.90
11107;DHT22;5607;48.302;14.294;2023-03-14T01:31:20;9.30;99.90
11107;DHT22;5607;48.302;14.294;2023-03-14T01:34:08;9.30;99.90
11107;DHT22;5607;48.302;14.294;2023-03-14T01:36:55;9.30;99.90
11107;DHT22;5607;48.302;14.294;2023-03-14T01:39:41;9.20;99.90
11107;DHT22;5607;48.302;14.294;2023-03-14T01:42:28;9.30;99.90
11107;DHT22;5607;48.302;14.294;2023-03-14T01:45:53;9.30;99.90
11107;DHT22;5607;48.302;14.294;2023-03-14T01:48:47;9.20;99.90
11107;DHT22;5607;48.302;14.294;2023-03-14T01:55:03;9.20;99.90
11107;DHT22;5607;48.302;14.294;2023-03-14T01:57:54;9.20;99.90
11107;DHT22;5607;48.302;14.294;2023-03-14T02:00:46;9.10;99.90
11107;DHT22;5607;48.302;14.294;2023-03-14T02:03:34;9.10;99.90
11107;DHT22;5607;48.302;14.294;2023-03-14T02:06:27;9.10;99.90
11107;DHT22;5607;48.302;14.294;2023-03-14T02:09:20;9.00;99.90
11107;DHT22;5607;48.302;14.294;2023-03-14T02:12:08;9.10;99.90
11107;DHT22;5607;48.302;14.294;2023-03-14T02:14:56;9.10;99.90
11107;DHT22;5607;48.302;14.294;2023-03-14T02:17:44;9.20;99.90
11107;DHT22;5607;48.302;14.294;2023-03-14T02:29:59;8.90;99.90
11107;DHT22;5607;48.302;14.294;2023-03-14T02:32:51;8.80;99.90
11107;DHT22;5607;48.302;14.294;2023-03-14T02:35:42;8.70;99.90
11107;DHT22;5607;48.302;14.294;2023-03-14T02:38:37;8.70;1.00
11107;DHT22;5607;48.302;14.294;2023-03-14T02:41:28;8.60;1.00
11107;DHT22;5607;48.302;14.294;2023-03-14T02:44:15;8.70;1.00
11107;DHT22;5607;48.302;14.294;2023-03-14T02:47:02;8.70;1.00
11107;DHT22;5607;48.302;14.294;2023-03-14T02:49:51;8.60;1.00
11107;DHT22;5607;48.302;14.294;2023-03-14T02:52:40;8.60;1.00
11107;DHT22;5607;48.302;14.294;2023-03-14T02:55:26;8.50;1.00
11107;DHT22;5607;48.302;14.294;2023-03-14T02:58:13;8.40;1.00
11107;DHT22;5607;48.302;14.294;2023-03-14T03:01:00;8.40;1.00
11107;DHT22;5607;48.302;14.294;2023-03-14T03:03:47;8.40;1.00
11107;DHT22;5607;48.302;14.294;2023-03-14T03:06:33;8.50;1.00
11107;DHT22;5607;48.302;14.294;2023-03-14T03:09:20;8.60;1.00
11107;DHT22;5607;48.302;14.294;2023-03-14T03:12:06;8.70;1.00
11107;DHT22;5607;48.302;14.294;2023-03-14T03:14:53;8.70;1.00
11107;DHT22;5607;48.302;14.294;2023-03-14T03:17:39;8.70;1.00
11107;DHT22;5607;48.302;14.294;2023-03-14T03:20:26;8.80;1.00
11107;DHT22;5607;48.302;14.294;2023-03-14T03:23:12;8.80;99.90
11107;DHT22;5607;48.302;14.294;2023-03-14T03:26:00;8.80;99.90
11107;DHT22;5607;48.302;14.294;2023-03-14T03:28:46;8.90;99.90
11107;DHT22;5607;48.302;14.294;2023-03-14T03:31:33;8.90;99.90
11107;DHT22;5607;48.302;14.294;2023-03-14T03:34:19;8.90;99.90
11107;DHT22;5607;48.302;14.294;2023-03-14T03:37:06;8.90;99.90
11107;DHT22;5607;48.302;14.294;2023-03-14T03:39:53;8.80;99.90
11107;DHT22;5607;48.302;14.294;2023-03-14T03:42:39;8.80;99.90
11107;DHT22;5607;48.302;14.294;2023-03-14T03:45:26;8.80;99.90
11107;DHT22;5607;48.302;14.294;2023-03-14T03:48:13;9.00;99.90
11107;DHT22;5607;48.302;14.294;2023-03-14T03:51:00;9.00;99.90
11107;DHT22;5607;48.302;14.294;2023-03-14T03:53:47;9.10;99.90
11107;DHT22;5607;48.302;14.294;2023-03-14T03:56:33;9.20;99.90
11107;DHT22;5607;48.302;14.294;2023-03-14T03:59:20;9.20;99.90
11107;DHT22;5607;48.302;14.294;2023-03-14T04:02:07;9.30;99.90
11107;DHT22;5607;48.302;14.294;2023-03-14T04:04:53;9.40;99.90
11107;DHT22;5607;48.302;14.294;2023-03-14T04:07:40;9.50;99.90
11107;DHT22;5607;48.302;14.294;2023-03-14T04:10:27;9.60;99.90
11107;DHT22;5607;48.302;14.294;2023-03-14T04:13:13;9.60;99.90
11107;DHT22;5607;48.302;14.294;2023-03-14T04:16:00;9.60;99.90
11107;DHT22;5607;48.302;14.294;2023-03-14T04:18:46;9.60;99.90
11107;DHT22;5607;48.302;14.294;2023-03-14T04:21:33;9.70;99.90
11107;DHT22;5607;48.302;14.294;2023-03-14T04:24:20;9.70;99.90
11107;DHT22;5607;48.302;14.294;2023-03-14T04:27:07;9.60;99.90
11107;DHT22;5607;48.302;14.294;2023-03-14T04:29:53;9.60;99.90
11107;DHT22;5607;48.302;14.294;2023-03-14T04:32:40;9.60;99.90
11107;DHT22;5607;48.302;14.294;2023-03-14T04:35:26;9.60;99.90
11107;DHT22;5607;48.302;14.294;2023-03-14T04:38:13;9.70;99.90
11107;DHT22;5607;48.302;14.294;2023-03-14T04:41:00;9.70;99.90
11107;DHT22;5607;48.302;14.294;2023-03-14T04:43:47;9.80;99.90
11107;DHT22;5607;48.302;14.294;2023-03-14T04:46:34;9.90;99.90
11107;DHT22;5607;48.302;14.294;2023-03-14T04:49:21;9.90;99.90
11107;DHT22;5607;48.302;14.294;2023-03-14T04:52:07;9.90;99.90
11107;DHT22;5607;48.302;14.294;2023-03-14T04:54:55;9.90;99.90
11107;DHT22;5607;48.302;14.294;2023-03-14T04:57:42;9.90;99.90
11107;DHT22;5607;48.302;14.294;2023-03-14T05:00:29;10.00;99.90
11107;DHT22;5607;48.302;14.294;2023-03-14T05:03:17;10.00;99.90
11107;DHT22;5607;48.302;14.294;2023-03-14T05:06:05;10.00;99.90
11107;DHT22;5607;48.302;14.294;2023-03-14T05:08:53;10.00;99.90
11107;DHT22;5607;48.302;14.294;2023-03-14T05:11:39;10.00;1.00
11107;DHT22;5607;48.302;14.294;2023-03-14T05:14:27;10.00;1.00
11107;DHT22;5607;48.302;14.294;2023-03-14T05:17:14;10.00;1.00
11107;DHT22;5607;48.302;14.294;2023-03-14T05:20:01;10.10;1.00
11107;DHT22;5607;48.302;14.294;2023-03-14T05:22:53;10.10;1.00
11107;DHT22;5607;48.302;14.294;2023-03-14T05:25:42;10.10;1.00
11107;DHT22;5607;48.302;14.294;2023-03-14T05:28:29;10.10;1.00
11107;DHT22;5607;48.302;14.294;2023-03-14T05:31:16;10.00;1.00
11107;DHT22;5607;48.302;14.294;2023-03-14T05:34:02;10.00;1.00
11107;DHT22;5607;48.302;14.294;2023-03-14T05:36:49;10.00;1.00
11107;DHT22;5607;48.302;14.294;2023-03-14T05:39:36;9.90;1.00
11107;DHT22;5607;48.302;14.294;2023-03-14T05:42:22;9.90;1.00
11107;DHT22;5607;48.302;14.294;2023-03-14T05:45:09;9.80;1.00
11107;DHT22;5607;48.302;14.294;2023-03-14T05:47:56;9.80;1.00
11107;DHT22;5607;48.302;14.294;2023-03-14T05:50:42;9.80;30.10
11107;DHT22;5607;48.302;14.294;2023-03-14T05:53:29;9.80;52.60
11107;DHT22;5607;48.302;14.294;2023-03-14T05:56:16;9.80;70.70
11107;DHT22;5607;48.302;14.294;2023-03-14T05:59:02;9.80;99.90
11107;DHT22;5607;48.302;14.294;2023-03-14T06:01:49;9.80;99.90
11107;DHT22;5607;48.302;14.294;2023-03-14T06:04:36;9.80;99.90
11107;DHT22;5607;48.302;14.294;2023-03-14T06:07:22;9.80;99.90
11107;DHT22;5607;48.302;14.294;2023-03-14T06:10:09;9.90;99.90
11107;DHT22;5607;48.302;14.294;2023-03-14T06:12:57;9.90;99.90
11107;DHT22;5607;48.302;14.294;2023-03-14T06:15:44;9.90;99.90
11107;DHT22;5607;48.302;14.294;2023-03-14T06:18:31;10.00;99.90
11107;DHT22;5607;48.302;14.294;2023-03-14T06:21:18;10.10;99.90
11107;DHT22;5607;48.302;14.294;2023-03-14T06:24:05;10.10;99.90
11107;DHT22;5607;48.302;14.294;2023-03-14T06:26:52;10.10;99.90
11107;DHT22;5607;48.302;14.294;2023-03-14T06:29:39;10.10;99.90
11107;DHT22;5607;48.302;14.294;2023-03-14T06:32:25;10.20;99.90
11107;DHT22;5607;48.302;14.294;2023-03-14T06:35:12;10.20;99.90
11107;DHT22;5607;48.302;14.294;2023-03-14T06:37:58;10.30;99.90
11107;DHT22;5607;48.302;14.294;2023-03-14T06:40:46;10.30;99.90
11107;DHT22;5607;48.302;14.294;2023-03-14T06:43:33;10.30;99.90
11107;DHT22;5607;48.302;14.294;2023-03-14T06:46:20;10.10;99.90
11107;DHT22;5607;48.302;14.294;2023-03-14T06:49:06;10.10;99.90
11107;DHT22;5607;48.302;14.294;2023-03-14T06:51:53;10.10;99.90
11107;DHT22;5607;48.302;14.294;2023-03-14T06:54:40;10.10;99.90
11107;DHT22;5607;48.302;14.294;2023-03-14T06:57:27;10.10;99.90
11107;DHT22;5607;48.302;14.294;2023-03-14T07:00:13;10.00;99.90
11107;DHT22;5607;48.302;14.294;2023-03-14T07:03:00;10.00;99.90
11107;DHT22;5607;48.302;14.294;2023-03-14T07:05:47;10.00;99.90
11107;DHT22;5607;48.302;14.294;2023-03-14T07:08:34;10.00;99.90
11107;DHT22;5607;48.302;14.294;2023-03-14T07:11:20;10.00;99.90
11107;DHT22;5607;48.302;14.294;2023-03-14T07:14:07;10.00;99.90
11107;DHT22;5607;48.302;14.294;2023-03-14T07:16:53;10.20;99.90
11107;DHT22;5607;48.302;14.294;2023-03-14T07:19:40;10.20;99.90
11107;DHT22;5607;48.302;14.294;2023-03-14T07:22:26;10.20;99.90
11107;DHT22;5607;48.302;14.294;2023-03-14T07:25:13;10.20;99.90
11107;DHT22;5607;48.302;14.294;2023-03-14T07:28:00;10.20;99.90
11107;DHT22;5607;48.302;14.294;2023-03-14T07:30:46;10.40;99.90
11107;DHT22;5607;48.302;14.294;2023-03-14T07:33:33;10.60;99.90
11107;DHT22;5607;48.302;14.294;2023-03-14T07:36:20;10.70;99.90
11107;DHT22;5607;48.302;14.294;2023-03-14T07:39:07;10.70;99.90
11107;DHT22;5607;48.302;14.294;2023-03-14T07:41:54;10.70;99.90
11107;DHT22;5607;48.302;14.294;2023-03-14T07:44:40;10.70;99.90
11107;DHT22;5607;48.302;14.294;2023-03-14T07:47:27;10.60;99.90
11107;DHT22;5607;48.302;14.294;2023-03-14T07:50:13;10.70;99.90
11107;DHT22;5607;48.302;14.294;2023-03-14T07:53:00;10.70;99.90
11107;DHT22;5607;48.302;14.294;2023-03-14T07:55:46;10.70;99.90
11107;DHT22;5607;48.302;14.294;2023-03-14T07:58:33;10.70;99.90
11107;DHT22;5607;48.302;14.294;2023-03-14T08:01:20;10.70;99.90
11107;DHT22;5607;48.302;14.294;2023-03-14T08:04:07;10.70;99.90
11107;DHT22;5607;48.302;14.294;2023-03-14T08:06:53;10.60;99.90
11107;DHT22;5607;48.302;14.294;2023-03-14T08:09:40;10.60;99.90
11107;DHT22;5607;48.302;14.294;2023-03-14T08:12:27;10.60;99.90
11107;DHT22;5607;48.302;14.294;2023-03-14T08:15:14;10.50;99.90
11107;DHT22;5607;48.302;14.294;2023-03-14T08:18:00;10.50;99.90
11107;DHT22;5607;48.302;14.294;2023-03-14T08:20:47;10.50;99.90
11107;DHT22;5607;48.302;14.294;2023-03-14T08:23:33;10.50;99.90
11107;DHT22;5607;48.302;14.294;2023-03-14T08:26:20;10.50;99.90
11107;DHT22;5607;48.302;14.294;2023-03-14T08:29:07;10.60;99.90
11107;DHT22;5607;48.302;14.294;2023-03-14T08:31:54;10.60;99.90
11107;DHT22;5607;48.302;14.294;2023-03-14T08:34:42;10.60;99.90
11107;DHT22;5607;48.302;14.294;2023-03-14T08:37:28;10.60;99.90
11107;DHT22;5607;48.302;14.294;2023-03-14T08:40:16;10.50;99.90
11107;DHT22;5607;48.302;14.294;2023-03-14T08:43:03;10.40;99.90
11107;DHT22;5607;48.302;14.294;2023-03-14T08:45:50;10.40;99.90
11107;DHT22;5607;48.302;14.294;2023-03-14T08:48:36;10.40;99.90
11107;DHT22;5607;48.302;14.294;2023-03-14T08:51:23;10.40;99.90
11107;DHT22;5607;48.302;14.294;2023-03-14T08:54:10;10.40;99.90
11107;DHT22;5607;48.302;14.294;2023-03-14T08:56:57;10.40;99.90
11107;DHT22;5607;48.302;14.294;2023-03-14T08:59:44;10.40;99.90
11107;DHT22;5607;48.302;14.294;2023-03-14T09:02:30;10.50;99.90
11107;DHT22;5607;48.302;14.294;2023-03-14T09:05:17;10.40;99.90
11107;DHT22;5607;48.302;14.294;2023-03-14T09:08:04;10.40;99.90
11107;DHT22;5607;48.302;14.294;2023-03-14T09:10:51;10.40;99.90
11107;DHT22;5607;48.302;14.294;2023-03-14T09:13:38;10.40;99.90
11107;DHT22;5607;48.302;14.294;2023-03-14T09:16:25;10.30;99.90
11107;DHT22;5607;48.302;14.294;2023-03-14T09:19:12;10.30;99.90
11107;DHT22;5607;48.302;14.294;2023-03-14T09:21:58;10.30;99.90
11107;DHT22;5607;48.302;14.294;2023-03-14T09:24:45;10.20;99.90
11107;DHT22;5607;48.302;14.294;2023-03-14T09:27:31;10.20;99.90
11107;DHT22;5607;48.302;14.294;2023-03-14T09:30:18;10.10;99.90
11107;DHT22;5607;48.302;14.294;2023-03-14T09:33:05;10.10;99.90
11107;DHT22;5607;48.302;14.294;2023-03-14T09:35:51;10.00;99.90
11107;DHT22;5607;48.302;14.294;2023-03-14T09:38:39;9.90;99.90
11107;DHT22;5607;48.302;14.294;2023-03-14T09:41:44;9.90;99.90
11107;DHT22;5607;48.302;14.294;2023-03-14T09:44:37;9.90;99.90
11107;DHT22;5607;48.302;14.294;2023-03-14T09:47:28;9.90;99.90
11107;DHT22;5607;48.302;14.294;2023-03-14T09:50:15;9.90;99.90
11107;DHT22;5607;48.302;14.294;2023-03-14T09:53:03;10.00;99.90
11107;DHT22;5607;48.302;14.294;2023-03-14T09:55:53;9.90;99.90
11107;DHT22;5607;48.302;14.294;2023-03-14T09:58:42;9.90;99.90
11107;DHT22;5607;48.302;14.294;2023-03-14T10:01:32;10.00;99.90
11107;DHT22;5607;48.302;14.294;2023-03-14T10:04:21;10.20;99.90
11107;DHT22;5607;48.302;14.294;2023-03-14T10:07:13;10.30;99.90
11107;DHT22;5607;48.302;14.294;2023-03-14T10:10:08;10.40;99.90
11107;DHT22;5607;48.302;14.294;2023-03-14T10:12:58;10.40;99.90
11107;DHT22;5607;48.302;14.294;2023-03-14T10:15:53;10.40;99.90
11107;DHT22;5607;48.302;14.294;2023-03-14T10:18:45;10.30;99.90
11107;DHT22;5607;48.302;14.294;2023-03-14T10:21:39;10.40;99.90
11107;DHT22;5607;48.302;14.294;2023-03-14T10:24:27;10.50;99.90
11107;DHT22;5607;48.302;14.294;2023-03-14T10:27:26;10.50;99.90
11107;DHT22;5607;48.302;14.294;2023-03-14T10:30:29;10.50;99.90
11107;DHT22;5607;48.302;14.294;2023-03-14T10:33:21;10.60;99.90
11107;DHT22;5607;48.302;14.294;2023-03-14T10:36:21;10.60;99.90
11107;DHT22;5607;48.302;14.294;2023-03-14T10:42:19;10.70;99.90
11107;DHT22;5607;48.302;14.294;2023-03-14T10:48:23;10.80;92.40
11107;DHT22;5607;48.302;14.294;2023-03-14T10:54:04;10.70;99.90
11107;DHT22;5607;48.302;14.294;2023-03-14T10:57:00;10.70;72.10
11107;DHT22;5607;48.302;14.294;2023-03-14T10:59:50;10.80;80.90
11107;DHT22;5607;48.302;14.294;2023-03-14T11:02:40;10.80;43.10
11107;DHT22;5607;48.302;14.294;2023-03-14T11:08:49;10.80;38.90
11107;DHT22;5607;48.302;14.294;2023-03-14T11:11:51;10.70;35.20
11107;DHT22;5607;48.302;14.294;2023-03-14T11:14:38;10.60;76.70
11107;DHT22;5607;48.302;14.294;2023-03-14T11:20:45;10.80;28.20
11107;DHT22;5607;48.302;14.294;2023-03-14T11:24:01;10.90;27.90
11107;DHT22;5607;48.302;14.294;2023-03-14T11:27:17;11.00;27.90
11107;DHT22;5607;48.302;14.294;2023-03-14T11:33:17;11.10;2.20
11107;DHT22;5607;48.302;14.294;2023-03-14T11:36:12;11.00;1.00
11107;DHT22;5607;48.302;14.294;2023-03-14T11:39:07;11.00;1.00
11107;DHT22;5607;48.302;14.294;2023-03-14T11:41:59;11.30;1.00
11107;DHT22;5607;48.302;14.294;2023-03-14T11:44:48;11.50;1.00
11107;DHT22;5607;48.302;14.294;2023-03-14T11:47:37;11.50;1.00
11107;DHT22;5607;48.302;14.294;2023-03-14T11:50:29;11.60;1.00
11107;DHT22;5607;48.302;14.294;2023-03-14T11:53:18;11.70;1.00
11107;DHT22;5607;48.302;14.294;2023-03-14T11:56:13;11.70;1.00
11107;DHT22;5607;48.302;14.294;2023-03-14T11:59:15;11.60;1.00
11107;DHT22;5607;48.302;14.294;2023-03-14T12:02:25;11.70;1.00
11107;DHT22;5607;48.302;14.294;2023-03-14T12:05:30;11.70;1.00
11107;DHT22;5607;48.302;14.294;2023-03-14T12:08:29;11.80;1.00
11107;DHT22;5607;48.302;14.294;2023-03-14T12:14:17;12.30;1.00
11107;DHT22;5607;48.302;14.294;2023-03-14T12:17:34;12.10;1.00
11107;DHT22;5607;48.302;14.294;2023-03-14T12:20:26;12.30;1.00
11107;DHT22;5607;48.302;14.294;2023-03-14T12:23:15;12.20;1.00
11107;DHT22;5607;48.302;14.294;2023-03-14T12:31:59;12.20;1.00
11107;DHT22;5607;48.302;14.294;2023-03-14T12:34:56;12.10;1.00
11107;DHT22;5607;48.302;14.294;2023-03-14T12:37:53;12.20;1.00
11107;DHT22;5607;48.302;14.294;2023-03-14T12:41:05;12.30;1.00
11107;DHT22;5607;48.302;14.294;2023-03-14T12:44:08;12.30;1.00
11107;DHT22;5607;48.302;14.294;2023-03-14T12:50:19;12.40;1.00
11107;DHT22;5607;48.302;14.294;2023-03-14T12:59:31;12.80;1.00
11107;DHT22;5607;48.302;14.294;2023-03-14T13:02:25;12.80;1.00
11107;DHT22;5607;48.302;14.294;2023-03-14T13:05:15;12.90;1.00
11107;DHT22;5607;48.302;14.294;2023-03-14T13:08:05;13.10;1.00
11107;DHT22;5607;48.302;14.294;2023-03-14T13:10:53;12.90;1.00
11107;DHT22;5607;48.302;14.294;2023-03-14T13:13:57;13.00;1.00
11107;DHT22;5607;48.302;14.294;2023-03-14T13:16:48;12.80;1.00
11107;DHT22;5607;48.302;14.294;2023-03-14T13:19:35;12.70;1.00
11107;DHT22;5607;48.302;14.294;2023-03-14T13:22:26;12.60;1.00
11107;DHT22;5607;48.302;14.294;2023-03-14T13:25:14;12.60;1.00
11107;DHT22;5607;48.302;14.294;2023-03-14T13:28:03;12.60;1.00
11107;DHT22;5607;48.302;14.294;2023-03-14T13:30:50;12.60;1.00
11107;DHT22;5607;48.302;14.294;2023-03-14T13:33:42;12.60;1.00
11107;DHT22;5607;48.302;14.294;2023-03-14T13:36:29;12.60;1.00
11107;DHT22;5607;48.302;14.294;2023-03-14T13:39:19;12.70;1.00
11107;DHT22;5607;48.302;14.294;2023-03-14T13:42:18;12.80;1.00
11107;DHT22;5607;48.302;14.294;2023-03-14T13:45:05;12.60;1.00
11107;DHT22;5607;48.302;14.294;2023-03-14T13:47:52;12.60;1.00
11107;DHT22;5607;48.302;14.294;2023-03-14T13:50:39;12.40;1.00
11107;DHT22;5607;48.302;14.294;2023-03-14T13:53:46;12.30;1.00
11107;DHT22;5607;48.302;14.294;2023-03-14T13:56:36;12.30;1.00
11107;DHT22;5607;48.302;14.294;2023-03-14T14:02:43;12.00;1.00
11107;DHT22;5607;48.302;14.294;2023-03-14T14:05:30;12.20;1.00
11107;DHT22;5607;48.302;14.294;2023-03-14T14:08:18;12.30;1.00
11107;DHT22;5607;48.302;14.294;2023-03-14T14:11:05;12.40;1.00
11107;DHT22;5607;48.302;14.294;2023-03-14T14:13:51;12.50;1.00
11107;DHT22;5607;48.302;14.294;2023-03-14T14:16:38;12.70;1.00
11107;DHT22;5607;48.302;14.294;2023-03-14T14:19:26;12.70;1.00
11107;DHT22;5607;48.302;14.294;2023-03-14T14:22:16;12.80;1.00
11107;DHT22;5607;48.302;14.294;2023-03-14T14:25:04;13.00;1.00
11107;DHT22;5607;48.302;14.294;2023-03-14T14:27:52;13.10;1.40
11107;DHT22;5607;48.302;14.294;2023-03-14T14:30:39;13.00;99.90
11107;DHT22;5607;48.302;14.294;2023-03-14T14:33:25;13.20;99.90
11107;DHT22;5607;48.302;14.294;2023-03-14T14:36:19;13.40;99.90
11107;DHT22;5607;48.302;14.294;2023-03-14T14:39:25;13.40;99.90
11107;DHT22;5607;48.302;14.294;2023-03-14T14:42:16;13.60;99.90
11107;DHT22;5607;48.302;14.294;2023-03-14T14:45:05;13.60;99.90
11107;DHT22;5607;48.302;14.294;2023-03-14T14:48:03;13.70;99.90
11107;DHT22;5607;48.302;14.294;2023-03-14T14:53:46;13.40;99.90
11107;DHT22;5607;48.302;14.294;2023-03-14T14:56:35;13.20;99.90
11107;DHT22;5607;48.302;14.294;2023-03-14T14:59:24;12.90;99.90
11107;DHT22;5607;48.302;14.294;2023-03-14T15:05:30;12.70;99.90
11107;DHT22;5607;48.302;14.294;2023-03-14T15:08:22;12.50;99.90
11107;DHT22;5607;48.302;14.294;2023-03-14T15:11:18;12.60;99.90
11107;DHT22;5607;48.302;14.294;2023-03-14T15:14:08;12.50;99.90
11107;DHT22;5607;48.302;14.294;2023-03-14T15:16:55;12.80;99.90
11107;DHT22;5607;48.302;14.294;2023-03-14T15:19:42;13.00;99.90
11107;DHT22;5607;48.302;14.294;2023-03-14T15:22:29;13.00;99.90
11107;DHT22;5607;48.302;14.294;2023-03-14T15:25:15;12.80;99.90
11107;DHT22;5607;48.302;14.294;2023-03-14T15:28:03;12.70;99.90
11107;DHT22;5607;48.302;14.294;2023-03-14T15:30:51;12.70;99.90
11107;DHT22;5607;48.302;14.294;2023-03-14T15:33:38;12.70;99.90
11107;DHT22;5607;48.302;14.294;2023-03-14T15:36:26;12.50;99.90
11107;DHT22;5607;48.302;14.294;2023-03-14T15:39:16;12.40;99.90
11107;DHT22;5607;48.302;14.294;2023-03-14T15:42:03;12.40;99.90
11107;DHT22;5607;48.302;14.294;2023-03-14T15:44:51;12.30;1.00
11107;DHT22;5607;48.302;14.294;2023-03-14T15:47:39;12.20;1.00
11107;DHT22;5607;48.302;14.294;2023-03-14T15:50:25;12.00;1.00
11107;DHT22;5607;48.302;14.294;2023-03-14T15:53:14;12.00;1.00
11107;DHT22;5607;48.302;14.294;2023-03-14T15:56:00;12.00;1.00
11107;DHT22;5607;48.302;14.294;2023-03-14T15:58:47;12.10;1.00
11107;DHT22;5607;48.302;14.294;2023-03-14T16:01:35;12.00;1.00
11107;DHT22;5607;48.302;14.294;2023-03-14T16:04:21;12.00;1.00
11107;DHT22;5607;48.302;14.294;2023-03-14T16:07:08;11.80;1.00
11107;DHT22;5607;48.302;14.294;2023-03-14T16:09:55;11.90;1.00
11107;DHT22;5607;48.302;14.294;2023-03-14T16:12:41;11.70;1.00
11107;DHT22;5607;48.302;14.294;2023-03-14T16:15:29;11.70;1.00
11107;DHT22;5607;48.302;14.294;2023-03-14T16:18:16;11.60;1.00
11107;DHT22;5607;48.302;14.294;2023-03-14T16:21:04;11.50;1.00
11107;DHT22;5607;48.302;14.294;2023-03-14T16:23:52;11.60;1.00
11107;DHT22;5607;48.302;14.294;2023-03-14T16:26:39;11.60;1.00
11107;DHT22;5607;48.302;14.294;2023-03-14T16:29:26;11.60;1.00
11107;DHT22;5607;48.302;14.294;2023-03-14T16:32:12;11.60;1.00
11107;DHT22;5607;48.302;14.294;2023-03-14T16:34:59;11.50;1.00
11107;DHT22;5607;48.302;14.294;2023-03-14T16:37:46;11.50;1.00
11107;DHT22;5607;48.302;14.294;2023-03-14T16:40:32;11.40;1.00
11107;DHT22;5607;48.302;14.294;2023-03-14T16:43:19;11.40;1.00
11107;DHT22;5607;48.302;14.294;2023-03-14T16:46:13;11.40;1.00
11107;DHT22;5607;48.302;14.294;2023-03-14T16:49:02;11.40;1.00
11107;DHT22;5607;48.302;14.294;2023-03-14T16:51:50;11.30;1.00
11107;DHT22;5607;48.302;14.294;2023-03-14T16:54:37;11.40;1.00
11107;DHT22;5607;48.302;14.294;2023-03-14T16:57:23;11.30;1.00
11107;DHT22;5607;48.302;14.294;2023-03-14T17:00:10;11.20;1.00
11107;DHT22;5607;48.302;14.294;2023-03-14T17:02:57;11.10;1.00
11107;DHT22;5607;48.302;14.294;2023-03-14T17:05:45;11.00;17.20
11107;DHT22;5607;48.302;14.294;2023-03-14T17:08:33;10.80;64.20
11107;DHT22;5607;48.302;14.294;2023-03-14T17:11:20;10.70;99.90
11107;DHT22;5607;48.302;14.294;2023-03-14T17:14:07;10.60;99.90
11107;DHT22;5607;48.302;14.294;2023-03-14T17:16:53;10.40;99.90
11107;DHT22;5607;48.302;14.294;2023-03-14T17:19:40;10.20;99.90
11107;DHT22;5607;48.302;14.294;2023-03-14T17:22:27;10.00;99.90
11107;DHT22;5607;48.302;14.294;2023-03-14T17:25:14;9.90;99.90
11107;DHT22;5607;48.302;14.294;2023-03-14T17:28:02;9.90;99.90
11107;DHT22;5607;48.302;14.294;2023-03-14T17:30:50;9.90;99.90
11107;DHT22;5607;48.302;14.294;2023-03-14T17:33:46;9.80;99.90
11107;DHT22;5607;48.302;14.294;2023-03-14T17:36:33;9.80;99.90
11107;DHT22;5607;48.302;14.294;2023-03-14T17:39:20;9.80;99.90
11107;DHT22;5607;48.302;14.294;2023-03-14T17:42:06;9.80;99.90
11107;DHT22;5607;48.302;14.294;2023-03-14T17:44:53;9.80;99.90
11107;DHT22;5607;48.302;14.294;2023-03-14T17:47:40;9.80;72.70
11107;DHT22;5607;48.302;14.294;2023-03-14T17:50:27;9.80;67.90
11107;DHT22;5607;48.302;14.294;2023-03-14T17:53:14;9.80;15.30
11107;DHT22;5607;48.302;14.294;2023-03-14T17:56:02;9.80;20.50
11107;DHT22;5607;48.302;14.294;2023-03-14T17:58:48;9.70;19.30
11107;DHT22;5607;48.302;14.294;2023-03-14T18:01:35;9.70;18.30
11107;DHT22;5607;48.302;14.294;2023-03-14T18:04:22;9.80;11.90
11107;DHT22;5607;48.302;14.294;2023-03-14T18:07:09;9.80;26.90
11107;DHT22;5607;48.302;14.294;2023-03-14T18:09:55;9.80;1.00
11107;DHT22;5607;48.302;14.294;2023-03-14T18:12:42;9.80;1.00
11107;DHT22;5607;48.302;14.294;2023-03-14T18:15:29;9.80;1.00
11107;DHT22;5607;48.302;14.294;2023-03-14T18:18:19;9.80;1.00
11107;DHT22;5607;48.302;14.294;2023-03-14T18:21:06;9.80;1.00
11107;DHT22;5607;48.302;14.294;2023-03-14T18:23:55;9.80;1.00
11107;DHT22;5607;48.302;14.294;2023-03-14T18:26:43;9.80;1.00
11107;DHT22;5607;48.302;14.294;2023-03-14T18:29:31;9.80;1.00
11107;DHT22;5607;48.302;14.294;2023-03-14T18:32:18;9.80;1.00
11107;DHT22;5607;48.302;14.294;2023-03-14T18:35:05;9.70;1.00
11107;DHT22;5607;48.302;14.294;2023-03-14T18:37:52;9.60;1.00
11107;DHT22;5607;48.302;14.294;2023-03-14T18:40:39;9.50;1.00
11107;DHT22;5607;48.302;14.294;2023-03-14T18:43:25;9.50;1.00
11107;DHT22;5607;48.302;14.294;2023-03-14T18:46:13;9.50;1.00
11107;DHT22;5607;48.302;14.294;2023-03-14T18:49:01;9.40;1.00
11107;DHT22;5607;48.302;14.294;2023-03-14T18:51:49;9.40;1.00
11107;DHT22;5607;48.302;14.294;2023-03-14T18:54:36;9.50;1.00
11107;DHT22;5607;48.302;14.294;2023-03-14T18:57:22;9.50;1.00
11107;DHT22;5607;48.302;14.294;2023-03-14T19:00:09;9.50;99.90